sensor_id;sensor_type;location;lat;lon;timestamp;pressure;altitude;pressure_sealevel;temperature;humidity
9239;BME280;4654;43.242;27.976;2024-02-26T00:01:52;98805.38;;;7.67;nan
9239;BME280;4654;43.242;27.976;2024-02-26T00:04:19;98800.97;;;7.67;nan
9239;BME280;4654;43.242;27.976;2024-02-26T00:06:47;98800.41;;;7.60;nan
9239;BME280;4654;43.242;27.976;2024-02-26T00:09:16;98808.78;;;7.62;nan
9239;BME280;4654;43.242;27.976;2024-02-26T00:11:43;98798.06;;;7.59;nan
9239;BME280;4654;43.242;27.976;2024-02-26T00:14:10;98788.16;;;7.56;nan
9239;BME280;4654;43.242;27.976;2024-02-26T00:16:40;98795.72;;;7.52;nan
9239;BME280;4654;43.242;27.976;2024-02-26T00:19:09;98793.63;;;7.49;nan
9239;BME280;4654;43.242;27.976;2024-02-26T00:21:40;98789.19;;;7.45;nan
9239;BME280;4654;43.242;27.976;2024-02-26T00:24:07;98783.97;;;7.50;nan
9239;BME280;4654;43.242;27.976;2024-02-26T00:26:34;98787.34;;;7.50;nan
9239;BME280;4654;43.242;27.976;2024-02-26T00:29:02;98774.28;;;7.45;nan
9239;BME280;4654;43.242;27.976;2024-02-26T00:31:29;98777.94;;;7.39;nan
9239;BME280;4654;43.242;27.976;2024-02-26T00:33:56;98777.69;;;7.41;nan
9239;BME280;4654;43.242;27.976;2024-02-26T00:36:25;98774.03;;;7.37;nan
9239;BME280;4654;43.242;27.976;2024-02-26T00:38:52;98774.28;;;7.35;nan
9239;BME280;4654;43.242;27.976;2024-02-26T00:41:19;98772.44;;;7.36;nan
9239;BME280;4654;43.242;27.976;2024-02-26T00:43:47;98767.22;;;7.36;nan
9239;BME280;4654;43.242;27.976;2024-02-26T00:46:14;98775.06;;;7.36;nan
9239;BME280;4654;43.242;27.976;2024-02-26T00:48:41;98771.94;;;7.44;nan
9239;BME280;4654;43.242;27.976;2024-02-26T00:51:08;98763.03;;;7.40;nan
9239;BME280;4654;43.242;27.976;2024-02-26T00:53:37;98770.63;;;7.41;nan
9239;BME280;4654;43.242;27.976;2024-02-26T00:56:04;98760.69;;;7.48;nan
9239;BME280;4654;43.242;27.976;2024-02-26T00:58:32;98754.69;;;7.43;nan
9239;BME280;4654;43.242;27.976;2024-02-26T01:00:59;98752.59;;;7.40;nan
9239;BME280;4654;43.242;27.976;2024-02-26T01:03:26;98747.13;;;7.41;nan
9239;BME280;4654;43.242;27.976;2024-02-26T01:05:53;98751.03;;;7.29;nan
9239;BME280;4654;43.242;27.976;2024-02-26T01:08:21;98747.13;;;7.27;nan
9239;BME280;4654;43.242;27.976;2024-02-26T01:10:49;98747.66;;;7.24;nan
9239;BME280;4654;43.242;27.976;2024-02-26T01:13:16;98750.25;;;7.24;nan
9239;BME280;4654;43.242;27.976;2024-02-26T01:15:43;98744.75;;;7.15;nan
9239;BME280;4654;43.242;27.976;2024-02-26T01:18:12;98739.78;;;7.09;nan
9239;BME280;4654;43.242;27.976;2024-02-26T01:20:39;98745.81;;;7.04;nan
9239;BME280;4654;43.242;27.976;2024-02-26T01:23:06;98745.00;;;6.99;nan
9239;BME280;4654;43.242;27.976;2024-02-26T01:25:33;98743.19;;;7.04;nan
9239;BME280;4654;43.242;27.976;2024-02-26T01:28:02;98733.78;;;7.03;nan
9239;BME280;4654;43.242;27.976;2024-02-26T01:30:29;98742.91;;;7.06;nan
9239;BME280;4654;43.242;27.976;2024-02-26T01:32:56;98750.00;;;7.05;nan
9239;BME280;4654;43.242;27.976;2024-02-26T01:35:24;98745.25;;;6.97;nan
9239;BME280;4654;43.242;27.976;2024-02-26T01:37:52;98752.56;;;6.90;nan
9239;BME280;4654;43.242;27.976;2024-02-26T01:40:19;98747.34;;;6.85;nan
9239;BME280;4654;43.242;27.976;2024-02-26T01:42:46;98742.63;;;6.82;nan
9239;BME280;4654;43.242;27.976;2024-02-26T01:45:16;98752.31;;;6.82;nan
9239;BME280;4654;43.242;27.976;2024-02-26T01:47:49;98748.38;;;6.79;nan
9239;BME280;4654;43.242;27.976;2024-02-26T01:50:17;98754.13;;;6.86;nan
9239;BME280;4654;43.242;27.976;2024-02-26T01:52:45;98749.69;;;6.82;nan
9239;BME280;4654;43.242;27.976;2024-02-26T01:55:14;98756.47;;;6.83;nan
9239;BME280;4654;43.242;27.976;2024-02-26T01:57:42;98755.69;;;6.82;nan
9239;BME280;4654;43.242;27.976;2024-02-26T02:00:11;98753.84;;;6.78;nan
9239;BME280;4654;43.242;27.976;2024-02-26T02:02:41;98758.28;;;6.72;nan
9239;BME280;4654;43.242;27.976;2024-02-26T02:05:12;98760.06;;;6.67;nan
9239;BME280;4654;43.242;27.976;2024-02-26T02:07:40;98762.97;;;6.65;nan
9239;BME280;4654;43.242;27.976;2024-02-26T02:10:08;98761.91;;;6.66;nan
9239;BME280;4654;43.242;27.976;2024-02-26T02:12:35;98771.56;;;6.71;nan
9239;BME280;4654;43.242;27.976;2024-02-26T02:15:06;98762.16;;;6.65;nan
9239;BME280;4654;43.242;27.976;2024-02-26T02:17:33;98759.53;;;6.60;nan
9239;BME280;4654;43.242;27.976;2024-02-26T02:20:02;98764.47;;;6.56;nan
9239;BME280;4654;43.242;27.976;2024-02-26T02:22:31;98756.38;;;6.53;nan
9239;BME280;4654;43.242;27.976;2024-02-26T02:24:58;98754.03;;;6.51;nan
9239;BME280;4654;43.242;27.976;2024-02-26T02:27:27;98754.81;;;6.47;nan
9239;BME280;4654;43.242;27.976;2024-02-26T02:29:55;98755.06;;;6.45;nan
9239;BME280;4654;43.242;27.976;2024-02-26T02:32:24;98753.25;;;6.46;nan
9239;BME280;4654;43.242;27.976;2024-02-26T02:34:52;98748.56;;;6.48;nan
9239;BME280;4654;43.242;27.976;2024-02-26T02:37:19;98754.28;;;6.45;nan
9239;BME280;4654;43.242;27.976;2024-02-26T02:39:48;98750.09;;;6.44;nan
9239;BME280;4654;43.242;27.976;2024-02-26T02:42:15;98745.94;;;6.48;nan
9239;BME280;4654;43.242;27.976;2024-02-26T02:44:42;98753.03;;;6.62;nan
9239;BME280;4654;43.242;27.976;2024-02-26T02:47:10;98741.03;;;6.61;nan
9239;BME280;4654;43.242;27.976;2024-02-26T02:49:37;98744.13;;;6.58;nan
9239;BME280;4654;43.242;27.976;2024-02-26T02:52:04;98747.25;;;6.55;nan
9239;BME280;4654;43.242;27.976;2024-02-26T02:54:32;98744.94;;;6.59;nan
9239;BME280;4654;43.242;27.976;2024-02-26T02:57:00;98750.94;;;6.59;nan
9239;BME280;4654;43.242;27.976;2024-02-26T02:59:28;98744.13;;;6.58;nan
9239;BME280;4654;43.242;27.976;2024-02-26T03:01:55;98735.00;;;6.56;nan
9239;BME280;4654;43.242;27.976;2024-02-26T03:04:22;98747.53;;;6.59;nan
9239;BME280;4654;43.242;27.976;2024-02-26T03:06:49;98738.88;;;6.43;nan
9239;BME280;4654;43.242;27.976;2024-02-26T03:09:16;98745.47;;;6.66;nan
9239;BME280;4654;43.242;27.976;2024-02-26T03:11:43;98749.63;;;6.62;nan
9239;BME280;4654;43.242;27.976;2024-02-26T03:14:12;98750.44;;;6.62;nan
9239;BME280;4654;43.242;27.976;2024-02-26T03:16:39;98751.97;;;6.58;nan
9239;BME280;4654;43.242;27.976;2024-02-26T03:19:07;98754.84;;;6.67;nan
9239;BME280;4654;43.242;27.976;2024-02-26T03:21:34;98756.41;;;6.58;nan
9239;BME280;4654;43.242;27.976;2024-02-26T03:24:01;98757.44;;;6.57;nan
9239;BME280;4654;43.242;27.976;2024-02-26T03:26:28;98757.16;;;6.53;nan
9239;BME280;4654;43.242;27.976;2024-02-26T03:28:56;98752.72;;;6.44;nan
9239;BME280;4654;43.242;27.976;2024-02-26T03:31:25;98759.22;;;6.41;nan
9239;BME280;4654;43.242;27.976;2024-02-26T03:33:52;98758.19;;;6.42;nan
9239;BME280;4654;43.242;27.976;2024-02-26T03:36:19;98755.56;;;6.42;nan
9239;BME280;4654;43.242;27.976;2024-02-26T03:38:47;98755.38;;;6.59;nan
9239;BME280;4654;43.242;27.976;2024-02-26T03:41:14;98749.41;;;6.68;nan
9239;BME280;4654;43.242;27.976;2024-02-26T03:43:41;98752.00;;;6.73;nan
9239;BME280;4654;43.242;27.976;2024-02-26T03:46:09;98750.00;;;7.10;nan
9239;BME280;4654;43.242;27.976;2024-02-26T03:48:38;98755.97;;;7.06;nan
9239;BME280;4654;43.242;27.976;2024-02-26T03:51:05;98755.75;;;7.12;nan
9239;BME280;4654;43.242;27.976;2024-02-26T03:53:33;98759.91;;;7.08;nan
9239;BME280;4654;43.242;27.976;2024-02-26T03:56:03;98759.41;;;7.16;nan
9239;BME280;4654;43.242;27.976;2024-02-26T03:58:30;98758.34;;;7.22;nan
9239;BME280;4654;43.242;27.976;2024-02-26T04:00:59;98750.25;;;7.38;nan
9239;BME280;4654;43.242;27.976;2024-02-26T04:03:26;98751.28;;;7.52;nan
9239;BME280;4654;43.242;27.976;2024-02-26T04:05:54;98754.94;;;7.61;nan
9239;BME280;4654;43.242;27.976;2024-02-26T04:08:22;98748.91;;;7.71;nan
9239;BME280;4654;43.242;27.976;2024-02-26T04:10:50;98742.13;;;7.70;nan
9239;BME280;4654;43.242;27.976;2024-02-26T04:13:17;98753.38;;;7.45;nan
9239;BME280;4654;43.242;27.976;2024-02-26T04:15:45;98753.91;;;7.32;nan
9239;BME280;4654;43.242;27.976;2024-02-26T04:18:12;98754.44;;;7.34;nan
9239;BME280;4654;43.242;27.976;2024-02-26T04:20:39;98760.19;;;7.36;nan
9239;BME280;4654;43.242;27.976;2024-02-26T04:23:09;98758.09;;;7.38;nan
9239;BME280;4654;43.242;27.976;2024-02-26T04:25:36;98757.81;;;7.30;nan
9239;BME280;4654;43.242;27.976;2024-02-26T04:28:04;98757.81;;;7.15;nan
9239;BME280;4654;43.242;27.976;2024-02-26T04:30:31;98762.53;;;7.13;nan
9239;BME280;4654;43.242;27.976;2024-02-26T04:32:58;98750.22;;;7.14;nan
9239;BME280;4654;43.242;27.976;2024-02-26T04:35:25;98758.06;;;7.14;nan
9239;BME280;4654;43.242;27.976;2024-02-26T04:37:53;98748.44;;;7.49;nan
9239;BME280;4654;43.242;27.976;2024-02-26T04:40:21;98744.50;;;7.51;nan
9239;BME280;4654;43.242;27.976;2024-02-26T04:42:49;98737.69;;;7.55;nan
9239;BME280;4654;43.242;27.976;2024-02-26T04:45:16;98741.84;;;7.61;nan
9239;BME280;4654;43.242;27.976;2024-02-26T04:47:43;98744.75;;;7.60;nan
9239;BME280;4654;43.242;27.976;2024-02-26T04:50:11;98741.88;;;7.56;nan
9239;BME280;4654;43.242;27.976;2024-02-26T04:52:38;98737.41;;;7.67;nan
9239;BME280;4654;43.242;27.976;2024-02-26T04:55:05;98745.00;;;7.58;nan
9239;BME280;4654;43.242;27.976;2024-02-26T04:57:34;98739.78;;;7.43;nan
9239;BME280;4654;43.242;27.976;2024-02-26T05:00:01;98741.13;;;7.46;nan
9239;BME280;4654;43.242;27.976;2024-02-26T05:02:30;98745.53;;;7.45;nan
9239;BME280;4654;43.242;27.976;2024-02-26T05:04:59;98742.63;;;7.72;nan
9239;BME280;4654;43.242;27.976;2024-02-26T05:07:26;98742.88;;;7.85;nan
9239;BME280;4654;43.242;27.976;2024-02-26T05:09:53;98748.88;;;7.86;nan
9239;BME280;4654;43.242;27.976;2024-02-26T05:12:21;98750.94;;;8.04;nan
9239;BME280;4654;43.242;27.976;2024-02-26T05:14:50;98750.41;;;8.07;nan
9239;BME280;4654;43.242;27.976;2024-02-26T05:17:17;98751.41;;;8.31;nan
9239;BME280;4654;43.242;27.976;2024-02-26T05:19:44;98753.13;;;8.55;nan
9239;BME280;4654;43.242;27.976;2024-02-26T05:22:11;98756.22;;;8.67;nan
9239;BME280;4654;43.242;27.976;2024-02-26T05:24:38;98751.41;;;8.79;nan
9239;BME280;4654;43.242;27.976;2024-02-26T05:27:06;98754.47;;;8.91;nan
9239;BME280;4654;43.242;27.976;2024-02-26T05:29:33;98756.22;;;9.05;nan
9239;BME280;4654;43.242;27.976;2024-02-26T05:32:02;98750.34;;;9.23;nan
9239;BME280;4654;43.242;27.976;2024-02-26T05:34:29;98758.69;;;9.30;nan
9239;BME280;4654;43.242;27.976;2024-02-26T05:36:57;98759.00;;;9.52;nan
9239;BME280;4654;43.242;27.976;2024-02-26T05:39:25;98759.81;;;9.81;nan
9239;BME280;4654;43.242;27.976;2024-02-26T05:41:52;98760.09;;;10.08;nan
9239;BME280;4654;43.242;27.976;2024-02-26T05:44:22;98753.66;;;10.42;nan
9239;BME280;4654;43.242;27.976;2024-02-26T05:46:49;98763.16;;;10.99;nan
9239;BME280;4654;43.242;27.976;2024-02-26T05:49:18;98769.56;;;11.25;nan
9239;BME280;4654;43.242;27.976;2024-02-26T05:51:45;98769.16;;;11.36;nan
9239;BME280;4654;43.242;27.976;2024-02-26T05:54:12;98784.75;;;11.46;nan
9239;BME280;4654;43.242;27.976;2024-02-26T05:56:39;98781.75;;;12.16;nan
9239;BME280;4654;43.242;27.976;2024-02-26T05:59:06;98771.38;;;13.44;nan
9239;BME280;4654;43.242;27.976;2024-02-26T06:01:34;98773.31;;;14.44;nan
9239;BME280;4654;43.242;27.976;2024-02-26T06:04:01;98764.28;;;16.43;nan
9239;BME280;4654;43.242;27.976;2024-02-26T06:06:29;98766.63;;;17.35;nan
9239;BME280;4654;43.242;27.976;2024-02-26T06:08:57;98760.91;;;17.77;nan
9239;BME280;4654;43.242;27.976;2024-02-26T06:11:24;98762.19;;;18.75;nan
9239;BME280;4654;43.242;27.976;2024-02-26T06:13:51;98756.50;;;19.83;nan
9239;BME280;4654;43.242;27.976;2024-02-26T06:16:19;98762.81;;;19.63;nan
9239;BME280;4654;43.242;27.976;2024-02-26T06:18:46;98756.75;;;20.71;nan
9239;BME280;4654;43.242;27.976;2024-02-26T06:21:13;98759.97;;;22.86;nan
9239;BME280;4654;43.242;27.976;2024-02-26T06:23:42;98763.41;;;24.18;nan
9239;BME280;4654;43.242;27.976;2024-02-26T06:26:09;98767.78;;;23.94;nan
9239;BME280;4654;43.242;27.976;2024-02-26T06:28:36;98775.69;;;22.62;nan
9239;BME280;4654;43.242;27.976;2024-02-26T06:31:06;98765.78;;;22.66;nan
9239;BME280;4654;43.242;27.976;2024-02-26T06:33:33;98774.88;;;21.91;nan
9239;BME280;4654;43.242;27.976;2024-02-26T06:36:00;98767.22;;;22.12;nan
9239;BME280;4654;43.242;27.976;2024-02-26T06:38:27;98764.28;;;23.86;nan
9239;BME280;4654;43.242;27.976;2024-02-26T06:40:56;98770.25;;;24.52;nan
9239;BME280;4654;43.242;27.976;2024-02-26T06:43:24;98772.78;;;23.26;nan
9239;BME280;4654;43.242;27.976;2024-02-26T06:45:51;98775.63;;;23.40;nan
9239;BME280;4654;43.242;27.976;2024-02-26T06:48:18;98783.00;;;22.91;nan
9239;BME280;4654;43.242;27.976;2024-02-26T06:50:45;98792.34;;;21.09;nan
9239;BME280;4654;43.242;27.976;2024-02-26T06:53:12;98788.16;;;21.27;nan
9239;BME280;4654;43.242;27.976;2024-02-26T06:55:39;98772.38;;;22.98;nan
9239;BME280;4654;43.242;27.976;2024-02-26T06:58:08;98770.81;;;24.79;nan
9239;BME280;4654;43.242;27.976;2024-02-26T07:00:36;98765.75;;;25.38;nan
9239;BME280;4654;43.242;27.976;2024-02-26T07:03:03;98771.31;;;26.22;nan
9239;BME280;4654;43.242;27.976;2024-02-26T07:05:31;98758.53;;;27.03;nan
9239;BME280;4654;43.242;27.976;2024-02-26T07:07:58;98761.97;;;27.14;nan
9239;BME280;4654;43.242;27.976;2024-02-26T07:10:25;98773.59;;;26.72;nan
9239;BME280;4654;43.242;27.976;2024-02-26T07:12:52;98776.31;;;26.30;nan
9239;BME280;4654;43.242;27.976;2024-02-26T07:15:21;98760.59;;;27.60;nan
9239;BME280;4654;43.242;27.976;2024-02-26T07:17:48;98767.03;;;27.83;nan
9239;BME280;4654;43.242;27.976;2024-02-26T07:20:15;98768.44;;;28.05;nan
9239;BME280;4654;43.242;27.976;2024-02-26T07:22:43;98754.81;;;28.19;nan
9239;BME280;4654;43.242;27.976;2024-02-26T07:25:11;98754.38;;;28.24;nan
9239;BME280;4654;43.242;27.976;2024-02-26T07:27:39;98754.00;;;28.22;nan
9239;BME280;4654;43.242;27.976;2024-02-26T07:30:07;98747.75;;;28.36;nan
9239;BME280;4654;43.242;27.976;2024-02-26T07:32:36;98755.22;;;28.18;nan
9239;BME280;4654;43.242;27.976;2024-02-26T07:35:04;98755.03;;;27.91;nan
9239;BME280;4654;43.242;27.976;2024-02-26T07:37:31;98752.31;;;27.23;nan
9239;BME280;4654;43.242;27.976;2024-02-26T07:39:59;98761.22;;;26.96;nan
9239;BME280;4654;43.242;27.976;2024-02-26T07:42:26;98750.44;;;27.10;nan
9239;BME280;4654;43.242;27.976;2024-02-26T07:44:53;98756.69;;;26.40;nan
9239;BME280;4654;43.242;27.976;2024-02-26T07:47:21;98758.59;;;25.91;nan
9239;BME280;4654;43.242;27.976;2024-02-26T07:49:50;98740.44;;;25.63;nan
9239;BME280;4654;43.242;27.976;2024-02-26T07:52:17;98750.50;;;26.05;nan
9239;BME280;4654;43.242;27.976;2024-02-26T07:54:44;98755.91;;;26.12;nan
9239;BME280;4654;43.242;27.976;2024-02-26T07:57:11;98753.88;;;25.67;nan
9239;BME280;4654;43.242;27.976;2024-02-26T07:59:42;98748.88;;;25.55;nan
9239;BME280;4654;43.242;27.976;2024-02-26T08:02:10;98753.44;;;25.37;nan
9239;BME280;4654;43.242;27.976;2024-02-26T08:04:37;98762.25;;;24.66;nan
9239;BME280;4654;43.242;27.976;2024-02-26T08:07:06;98764.38;;;24.43;nan
9239;BME280;4654;43.242;27.976;2024-02-26T08:09:33;98770.94;;;25.07;nan
9239;BME280;4654;43.242;27.976;2024-02-26T08:12:00;98760.84;;;25.75;nan
9239;BME280;4654;43.242;27.976;2024-02-26T08:14:28;98761.25;;;26.82;nan
9239;BME280;4654;43.242;27.976;2024-02-26T08:16:55;98725.50;;;26.39;nan
9239;BME280;4654;43.242;27.976;2024-02-26T08:19:22;98763.53;;;26.97;nan
9239;BME280;4654;43.242;27.976;2024-02-26T08:21:49;98726.94;;;26.93;nan
9239;BME280;4654;43.242;27.976;2024-02-26T08:24:18;98760.63;;;27.53;nan
9239;BME280;4654;43.242;27.976;2024-02-26T08:26:45;98764.44;;;28.24;nan
9239;BME280;4654;43.242;27.976;2024-02-26T08:29:13;98763.00;;;28.60;nan
9239;BME280;4654;43.242;27.976;2024-02-26T08:31:40;98769.25;;;27.99;nan
9239;BME280;4654;43.242;27.976;2024-02-26T08:34:07;98763.53;;;26.94;nan
9239;BME280;4654;43.242;27.976;2024-02-26T08:36:35;98762.81;;;26.13;nan
9239;BME280;4654;43.242;27.976;2024-02-26T08:39:02;98781.41;;;25.22;nan
9239;BME280;4654;43.242;27.976;2024-02-26T08:41:31;98783.53;;;24.38;nan
9239;BME280;4654;43.242;27.976;2024-02-26T08:43:58;98786.72;;;24.51;nan
9239;BME280;4654;43.242;27.976;2024-02-26T08:46:25;98778.53;;;25.76;nan
9239;BME280;4654;43.242;27.976;2024-02-26T08:48:52;98778.53;;;25.79;nan
9239;BME280;4654;43.242;27.976;2024-02-26T08:51:20;98778.25;;;26.37;nan
9239;BME280;4654;43.242;27.976;2024-02-26T08:53:47;98777.50;;;26.47;nan
9239;BME280;4654;43.242;27.976;2024-02-26T08:56:14;98780.56;;;26.52;nan
9239;BME280;4654;43.242;27.976;2024-02-26T08:58:44;98786.75;;;25.12;nan
9239;BME280;4654;43.242;27.976;2024-02-26T09:01:14;98788.72;;;24.57;nan
9239;BME280;4654;43.242;27.976;2024-02-26T09:03:41;98782.16;;;25.16;nan
9239;BME280;4654;43.242;27.976;2024-02-26T09:06:09;98788.88;;;24.82;nan
9239;BME280;4654;43.242;27.976;2024-02-26T09:08:37;98800.56;;;24.09;nan
9239;BME280;4654;43.242;27.976;2024-02-26T09:11:04;98797.78;;;22.78;nan
9239;BME280;4654;43.242;27.976;2024-02-26T09:13:32;98801.72;;;23.13;nan
9239;BME280;4654;43.242;27.976;2024-02-26T09:16:01;98792.16;;;24.14;nan
9239;BME280;4654;43.242;27.976;2024-02-26T09:18:28;98781.09;;;25.38;nan
9239;BME280;4654;43.242;27.976;2024-02-26T09:20:55;98781.59;;;25.71;nan
9239;BME280;4654;43.242;27.976;2024-02-26T09:23:22;98778.59;;;25.83;nan
9239;BME280;4654;43.242;27.976;2024-02-26T09:25:49;98781.56;;;25.57;nan
9239;BME280;4654;43.242;27.976;2024-02-26T09:28:17;98778.63;;;26.28;nan
9239;BME280;4654;43.242;27.976;2024-02-26T09:30:44;98774.66;;;27.27;nan
9239;BME280;4654;43.242;27.976;2024-02-26T09:33:13;98776.47;;;27.54;nan
9239;BME280;4654;43.242;27.976;2024-02-26T09:35:40;98784.13;;;28.31;nan
9239;BME280;4654;43.242;27.976;2024-02-26T09:38:08;98776.97;;;28.00;nan
9239;BME280;4654;43.242;27.976;2024-02-26T09:40:35;98768.13;;;28.47;nan
9239;BME280;4654;43.242;27.976;2024-02-26T09:43:04;98778.63;;;28.82;nan
9239;BME280;4654;43.242;27.976;2024-02-26T09:45:33;98773.19;;;28.42;nan
9239;BME280;4654;43.242;27.976;2024-02-26T09:48:02;98774.16;;;29.02;nan
9239;BME280;4654;43.242;27.976;2024-02-26T09:50:33;98771.47;;;29.92;nan
9239;BME280;4654;43.242;27.976;2024-02-26T09:53:00;98765.53;;;30.04;nan
9239;BME280;4654;43.242;27.976;2024-02-26T09:55:28;98757.06;;;30.25;nan
9239;BME280;4654;43.242;27.976;2024-02-26T09:57:56;98756.22;;;30.50;nan
9239;BME280;4654;43.242;27.976;2024-02-26T10:00:25;98751.69;;;29.95;nan
9239;BME280;4654;43.242;27.976;2024-02-26T10:02:56;98751.69;;;29.95;nan
9239;BME280;4654;43.242;27.976;2024-02-26T10:05:25;98740.47;;;30.19;nan
9239;BME280;4654;43.242;27.976;2024-02-26T10:07:55;98746.44;;;29.58;nan
9239;BME280;4654;43.242;27.976;2024-02-26T10:10:23;98752.94;;;29.64;nan
9239;BME280;4654;43.242;27.976;2024-02-26T10:12:51;98748.44;;;29.20;nan
9239;BME280;4654;43.242;27.976;2024-02-26T10:15:18;98747.13;;;28.14;nan
9239;BME280;4654;43.242;27.976;2024-02-26T10:17:45;98751.66;;;27.77;nan
9239;BME280;4654;43.242;27.976;2024-02-26T10:20:13;98752.19;;;27.47;nan
9239;BME280;4654;43.242;27.976;2024-02-26T10:22:43;98751.03;;;27.41;nan
9239;BME280;4654;43.242;27.976;2024-02-26T10:25:12;98744.97;;;27.95;nan
9239;BME280;4654;43.242;27.976;2024-02-26T10:27:40;98746.56;;;28.40;nan
9239;BME280;4654;43.242;27.976;2024-02-26T10:30:16;98731.63;;;27.67;nan
9239;BME280;4654;43.242;27.976;2024-02-26T10:32:45;98741.06;;;27.31;nan
9239;BME280;4654;43.242;27.976;2024-02-26T10:35:13;98739.28;;;26.87;nan
9239;BME280;4654;43.242;27.976;2024-02-26T10:37:40;98740.44;;;26.89;nan
9239;BME280;4654;43.242;27.976;2024-02-26T10:40:11;98735.13;;;26.47;nan
9239;BME280;4654;43.242;27.976;2024-02-26T10:42:39;98738.38;;;25.29;nan
9239;BME280;4654;43.242;27.976;2024-02-26T10:45:07;98741.31;;;24.42;nan
9239;BME280;4654;43.242;27.976;2024-02-26T10:47:35;98741.88;;;23.39;nan
9239;BME280;4654;43.242;27.976;2024-02-26T10:50:05;98742.53;;;22.44;nan
9239;BME280;4654;43.242;27.976;2024-02-26T10:52:33;98747.47;;;21.75;nan
9239;BME280;4654;43.242;27.976;2024-02-26T10:55:02;98744.38;;;21.16;nan
9239;BME280;4654;43.242;27.976;2024-02-26T10:57:34;98742.84;;;20.81;nan
9239;BME280;4654;43.242;27.976;2024-02-26T11:00:04;98729.00;;;20.25;nan
9239;BME280;4654;43.242;27.976;2024-02-26T11:02:32;98738.00;;;19.90;nan
9239;BME280;4654;43.242;27.976;2024-02-26T11:05:02;98737.56;;;19.30;nan
9239;BME280;4654;43.242;27.976;2024-02-26T11:07:30;98738.34;;;18.79;nan
9239;BME280;4654;43.242;27.976;2024-02-26T11:09:59;98740.34;;;18.70;nan
9239;BME280;4654;43.242;27.976;2024-02-26T11:12:29;98725.81;;;18.79;nan
9239;BME280;4654;43.242;27.976;2024-02-26T11:14:58;98729.41;;;18.59;nan
9239;BME280;4654;43.242;27.976;2024-02-26T11:17:28;98734.63;;;18.32;nan
9239;BME280;4654;43.242;27.976;2024-02-26T11:19:57;98733.78;;;17.95;nan
9239;BME280;4654;43.242;27.976;2024-02-26T11:22:25;98716.38;;;17.74;nan
9239;BME280;4654;43.242;27.976;2024-02-26T11:24:53;98730.53;;;17.66;nan
9239;BME280;4654;43.242;27.976;2024-02-26T11:27:24;98727.56;;;17.68;nan
9239;BME280;4654;43.242;27.976;2024-02-26T11:29:58;98738.91;;;17.24;nan
9239;BME280;4654;43.242;27.976;2024-02-26T11:32:26;98731.31;;;17.14;nan
9239;BME280;4654;43.242;27.976;2024-02-26T11:34:56;98737.84;;;16.55;nan
9239;BME280;4654;43.242;27.976;2024-02-26T11:37:23;98741.81;;;16.40;nan
9239;BME280;4654;43.242;27.976;2024-02-26T11:39:52;98732.13;;;16.44;nan
9239;BME280;4654;43.242;27.976;2024-02-26T11:42:23;98732.09;;;16.73;nan
9239;BME280;4654;43.242;27.976;2024-02-26T11:44:51;98729.50;;;17.06;nan
9239;BME280;4654;43.242;27.976;2024-02-26T11:47:21;98733.78;;;16.78;nan
9239;BME280;4654;43.242;27.976;2024-02-26T11:49:49;98742.88;;;16.48;nan
9239;BME280;4654;43.242;27.976;2024-02-26T11:52:16;98725.03;;;16.57;nan
9239;BME280;4654;43.242;27.976;2024-02-26T11:54:45;98723.34;;;16.73;nan
9239;BME280;4654;43.242;27.976;2024-02-26T11:57:22;98722.66;;;16.84;nan
9239;BME280;4654;43.242;27.976;2024-02-26T11:59:50;98717.47;;;17.08;nan
9239;BME280;4654;43.242;27.976;2024-02-26T12:02:43;98718.19;;;16.97;nan
9239;BME280;4654;43.242;27.976;2024-02-26T12:05:12;98727.06;;;16.80;nan
9239;BME280;4654;43.242;27.976;2024-02-26T12:07:44;98727.00;;;16.68;nan
9239;BME280;4654;43.242;27.976;2024-02-26T12:10:17;98723.31;;;16.52;nan
9239;BME280;4654;43.242;27.976;2024-02-26T12:12:47;98723.84;;;16.46;nan
9239;BME280;4654;43.242;27.976;2024-02-26T12:15:16;98726.09;;;16.35;nan
9239;BME280;4654;43.242;27.976;2024-02-26T12:17:51;98727.84;;;16.23;nan
9239;BME280;4654;43.242;27.976;2024-02-26T12:20:18;98727.28;;;16.09;nan
9239;BME280;4654;43.242;27.976;2024-02-26T12:22:47;98724.56;;;15.80;nan
9239;BME280;4654;43.242;27.976;2024-02-26T12:25:15;98709.19;;;15.74;nan
9239;BME280;4654;43.242;27.976;2024-02-26T12:27:42;98714.09;;;15.92;nan
9239;BME280;4654;43.242;27.976;2024-02-26T12:30:11;98717.16;;;15.65;nan
9239;BME280;4654;43.242;27.976;2024-02-26T12:32:38;98723.09;;;15.45;nan
9239;BME280;4654;43.242;27.976;2024-02-26T12:35:07;98722.06;;;15.38;nan
9239;BME280;4654;43.242;27.976;2024-02-26T12:37:35;98726.56;;;15.37;nan
9239;BME280;4654;43.242;27.976;2024-02-26T12:40:04;98731.06;;;15.20;nan
9239;BME280;4654;43.242;27.976;2024-02-26T12:42:33;98722.19;;;15.07;nan
9239;BME280;4654;43.242;27.976;2024-02-26T12:45:06;98727.03;;;14.97;nan
9239;BME280;4654;43.242;27.976;2024-02-26T12:47:38;98717.06;;;14.94;nan
9239;BME280;4654;43.242;27.976;2024-02-26T12:50:08;98718.75;;;14.98;nan
9239;BME280;4654;43.242;27.976;2024-02-26T12:52:36;98717.66;;;14.99;nan
9239;BME280;4654;43.242;27.976;2024-02-26T12:55:06;98718.91;;;15.19;nan
9239;BME280;4654;43.242;27.976;2024-02-26T12:57:36;98711.94;;;15.31;nan
9239;BME280;4654;43.242;27.976;2024-02-26T13:00:05;98710.84;;;15.15;nan
9239;BME280;4654;43.242;27.976;2024-02-26T13:02:35;98706.78;;;15.18;nan
9239;BME280;4654;43.242;27.976;2024-02-26T13:05:04;98706.47;;;15.11;nan
9239;BME280;4654;43.242;27.976;2024-02-26T13:07:34;98720.81;;;14.93;nan
9239;BME280;4654;43.242;27.976;2024-02-26T13:10:08;98711.16;;;14.97;nan
9239;BME280;4654;43.242;27.976;2024-02-26T13:12:37;98719.41;;;14.78;nan
9239;BME280;4654;43.242;27.976;2024-02-26T13:15:05;98730.38;;;14.47;nan
9239;BME280;4654;43.242;27.976;2024-02-26T13:17:33;98731.66;;;14.49;nan
9239;BME280;4654;43.242;27.976;2024-02-26T13:20:00;98729.00;;;14.58;nan
9239;BME280;4654;43.242;27.976;2024-02-26T13:22:27;98734.75;;;14.60;nan
9239;BME280;4654;43.242;27.976;2024-02-26T13:25:00;98739.47;;;14.24;nan
9239;BME280;4654;43.242;27.976;2024-02-26T13:27:28;98736.69;;;14.20;nan
9239;BME280;4654;43.242;27.976;2024-02-26T13:30:04;98738.38;;;13.86;nan
9239;BME280;4654;43.242;27.976;2024-02-26T13:32:33;98735.84;;;13.81;nan
9239;BME280;4654;43.242;27.976;2024-02-26T13:35:08;98744.66;;;13.68;nan
9239;BME280;4654;43.242;27.976;2024-02-26T13:37:36;98741.94;;;13.59;nan
9239;BME280;4654;43.242;27.976;2024-02-26T13:40:09;98743.81;;;13.59;nan
9239;BME280;4654;43.242;27.976;2024-02-26T13:42:36;98749.66;;;13.47;nan